createdAt,value
2023-01-28T00:01:15.018Z,98927.00
2023-01-28T00:04:02.621Z,98917.00
2023-01-28T00:06:50.485Z,98921.00
2023-01-28T00:09:39.564Z,98918.00
2023-01-28T00:12:27.492Z,98925.00
2023-01-28T00:15:16.086Z,98924.00
2023-01-28T00:18:04.110Z,98928.00
2023-01-28T00:21:08.681Z,98925.00
2023-01-28T00:23:57.553Z,98926.00
2023-01-28T00:26:45.491Z,98923.00
2023-01-28T00:29:33.025Z,98924.00
2023-01-28T00:32:20.680Z,98922.00
2023-01-28T00:35:08.886Z,98924.00
2023-01-28T00:37:56.349Z,98932.00
2023-01-28T00:40:45.035Z,98920.00
2023-01-28T00:43:32.705Z,98929.00
2023-01-28T00:46:22.064Z,98933.00
2023-01-28T00:49:10.224Z,98926.00
2023-01-28T00:51:57.662Z,98931.00
2023-01-28T00:54:45.199Z,98937.00
2023-01-28T00:57:33.429Z,98949.00
2023-01-28T01:00:27.341Z,98939.00
2023-01-28T01:03:15.080Z,98943.00
2023-01-28T01:06:02.915Z,98940.00
2023-01-28T01:08:51.400Z,98941.00
2023-01-28T01:11:39.189Z,98947.00
2023-01-28T01:14:26.776Z,98939.00
2023-01-28T01:17:14.398Z,98943.00
2023-01-28T01:20:02.024Z,98958.00
2023-01-28T01:22:50.091Z,98954.00
2023-01-28T01:25:40.513Z,98955.00
2023-01-28T01:28:28.859Z,98942.00
2023-01-28T01:31:20.059Z,98940.00
2023-01-28T01:34:07.609Z,98940.00
2023-01-28T01:36:55.100Z,98942.00
2023-01-28T01:39:42.705Z,98946.00
2023-01-28T01:42:34.880Z,98944.00
2023-01-28T01:45:22.926Z,98949.00
2023-01-28T01:48:23.421Z,98954.00
2023-01-28T01:51:19.729Z,98952.00
2023-01-28T01:54:08.447Z,98956.00
2023-01-28T01:56:56.608Z,98956.00
2023-01-28T01:59:46.058Z,98955.00
2023-01-28T02:02:42.093Z,98961.00
2023-01-28T02:05:29.553Z,98968.00
2023-01-28T02:08:23.177Z,98966.00
2023-01-28T02:11:14.689Z,98968.00
2023-01-28T02:14:05.114Z,98957.00
2023-01-28T02:16:53.610Z,98960.00
2023-01-28T02:19:55.320Z,98961.00
2023-01-28T02:23:21.600Z,98964.00
2023-01-28T02:26:42.893Z,98959.00
2023-01-28T02:29:44.637Z,98953.00
2023-01-28T02:32:51.260Z,98959.00
2023-01-28T02:35:53.349Z,98955.00
2023-01-28T02:38:48.774Z,98962.00
2023-01-28T02:42:32.498Z,98957.00
2023-01-28T02:45:56.418Z,98956.00
2023-01-28T02:48:44.209Z,98958.00
2023-01-28T02:52:16.061Z,98962.00
2023-01-28T02:55:36.795Z,98967.00
2023-01-28T02:58:42.924Z,98965.00
2023-01-28T03:01:43.688Z,98972.00
2023-01-28T03:04:45.789Z,98968.00
2023-01-28T03:07:38.863Z,98959.00
2023-01-28T03:10:28.514Z,98966.00
2023-01-28T03:13:35.375Z,98969.00
2023-01-28T03:16:41.334Z,98968.00
2023-01-28T03:19:47.617Z,98974.00
2023-01-28T03:23:02.634Z,98976.00
2023-01-28T03:26:15.254Z,98977.00
2023-01-28T03:29:29.485Z,98977.00
2023-01-28T03:32:38.121Z,98985.00
2023-01-28T03:35:50.513Z,98991.00
2023-01-28T03:38:43.239Z,98987.00
2023-01-28T03:41:30.958Z,98993.00
2023-01-28T03:44:37.393Z,98986.00
2023-01-28T03:47:31.661Z,98985.00
2023-01-28T03:50:19.338Z,98987.00
2023-01-28T03:53:16.374Z,98987.00
2023-01-28T03:56:04.478Z,98993.00
2023-01-28T03:58:57.019Z,98991.00
2023-01-28T04:01:44.747Z,98997.00
2023-01-28T04:04:33.045Z,98999.00
2023-01-28T04:07:20.678Z,99000.00
2023-01-28T04:10:09.239Z,98991.00
2023-01-28T04:12:56.900Z,98995.00
2023-01-28T04:15:45.561Z,99004.00
2023-01-28T04:18:33.111Z,99002.00
2023-01-28T04:21:21.165Z,99004.00
2023-01-28T04:24:09.344Z,99009.00
2023-01-28T04:26:56.929Z,99010.00
2023-01-28T04:29:44.779Z,99012.00
2023-01-28T04:32:32.403Z,99009.00
2023-01-28T04:35:20.288Z,99010.00
2023-01-28T04:38:08.440Z,99004.00
2023-01-28T04:40:56.010Z,99010.00
2023-01-28T04:43:46.438Z,99013.00
2023-01-28T04:46:34.652Z,99018.00
2023-01-28T04:49:22.278Z,99025.00
2023-01-28T04:52:09.929Z,99033.00
2023-01-28T04:54:57.463Z,99029.00
2023-01-28T04:57:46.859Z,99024.00
2023-01-28T05:00:34.692Z,99029.00
2023-01-28T05:03:22.554Z,99037.00
2023-01-28T05:06:10.594Z,99027.00
2023-01-28T05:08:58.500Z,99037.00
2023-01-28T05:11:46.200Z,99031.00
2023-01-28T05:14:33.963Z,99049.00
2023-01-28T05:17:21.579Z,99044.00
2023-01-28T05:20:12.522Z,99043.00
2023-01-28T05:23:00.295Z,99050.00
2023-01-28T05:25:48.829Z,99048.00
2023-01-28T05:28:37.800Z,99049.00
2023-01-28T05:31:25.666Z,99053.00
2023-01-28T05:34:13.375Z,99057.00
2023-01-28T05:37:01.408Z,99070.00
2023-01-28T05:39:48.977Z,99071.00
2023-01-28T05:42:36.705Z,99069.00
2023-01-28T05:45:24.515Z,99073.00
2023-01-28T05:48:12.211Z,99075.00
2023-01-28T05:50:59.899Z,99077.00
2023-01-28T05:53:47.424Z,99084.00
2023-01-28T05:56:36.653Z,99067.00
2023-01-28T05:59:24.201Z,99074.00
2023-01-28T06:02:11.742Z,99088.00
2023-01-28T06:04:59.968Z,99085.00
2023-01-28T06:07:48.849Z,99088.00
2023-01-28T06:10:36.604Z,99082.00
2023-01-28T06:13:24.214Z,99083.00
2023-01-28T06:16:11.672Z,99089.00
2023-01-28T06:18:59.729Z,99100.00
2023-01-28T06:21:47.586Z,99104.00
2023-01-28T06:24:35.339Z,99100.00
2023-01-28T06:27:22.861Z,99107.00
2023-01-28T06:30:11.575Z,99109.00
2023-01-28T06:32:59.174Z,99113.00
2023-01-28T06:35:47.194Z,99122.00
2023-01-28T06:38:35.190Z,99118.00
2023-01-28T06:41:23.263Z,99120.00
2023-01-28T06:44:11.436Z,99118.00
2023-01-28T06:46:59.105Z,99114.00
2023-01-28T06:49:46.633Z,99115.00
2023-01-28T06:52:34.617Z,99120.00
2023-01-28T06:55:22.104Z,99125.00
2023-01-28T06:58:10.108Z,99136.00
2023-01-28T07:00:57.679Z,99132.00
2023-01-28T07:03:45.405Z,99128.00
2023-01-28T07:06:33.108Z,99138.00
2023-01-28T07:09:20.785Z,99134.00
2023-01-28T07:12:08.591Z,99134.00
2023-01-28T07:14:56.084Z,99138.00
2023-01-28T07:17:44.304Z,99140.00
2023-01-28T07:20:31.892Z,99146.00
2023-01-28T07:23:19.508Z,99146.00
2023-01-28T07:26:07.410Z,99146.00
2023-01-28T07:28:54.967Z,99141.00
2023-01-28T07:31:42.623Z,99142.00
2023-01-28T07:34:30.558Z,99158.00
2023-01-28T07:37:18.284Z,99148.00
2023-01-28T07:40:07.009Z,99151.00
2023-01-28T07:42:55.655Z,99150.00
2023-01-28T07:45:43.256Z,99148.00
2023-01-28T07:48:31.172Z,99155.00
2023-01-28T07:51:18.773Z,99163.00
2023-01-28T07:54:06.299Z,99158.00
2023-01-28T07:56:53.821Z,99157.00
2023-01-28T07:59:41.491Z,99165.00
2023-01-28T08:02:29.492Z,99168.00
2023-01-28T08:05:22.403Z,99161.00
2023-01-28T08:08:11.482Z,99167.00
2023-01-28T08:10:59.129Z,99179.00
2023-01-28T08:13:47.153Z,99179.00
2023-01-28T08:16:34.919Z,99180.00
2023-01-28T08:19:22.463Z,99183.00
2023-01-28T08:22:10.366Z,99189.00
2023-01-28T08:24:57.891Z,99188.00
2023-01-28T08:27:45.405Z,99185.00
2023-01-28T08:30:33.913Z,99196.00
2023-01-28T08:33:22.027Z,99187.00
2023-01-28T08:36:10.019Z,99195.00
2023-01-28T08:38:57.685Z,99187.00
2023-01-28T08:41:45.356Z,99196.00
2023-01-28T08:44:33.966Z,99191.00
2023-01-28T08:47:21.553Z,99185.00
2023-01-28T08:50:10.040Z,99197.00
2023-01-28T08:53:02.130Z,99195.00
2023-01-28T08:55:49.663Z,99192.00
2023-01-28T08:58:37.302Z,99195.00
2023-01-28T09:01:26.317Z,99199.00
2023-01-28T09:04:13.954Z,99197.00
2023-01-28T09:07:02.162Z,99200.00
2023-01-28T09:09:49.883Z,99206.00
2023-01-28T09:12:38.284Z,99201.00
2023-01-28T09:15:26.155Z,99202.00
2023-01-28T09:18:13.645Z,99211.00
2023-01-28T09:21:05.955Z,99214.00
2023-01-28T09:23:55.850Z,99216.00
2023-01-28T09:26:44.628Z,99218.00
2023-01-28T09:29:34.621Z,99219.00
2023-01-28T09:32:22.519Z,99218.00
2023-01-28T09:35:10.592Z,99224.00
2023-01-28T09:37:59.683Z,99224.00
2023-01-28T09:40:47.797Z,99219.00
2023-01-28T09:43:59.341Z,99219.00
2023-01-28T09:46:47.126Z,99218.00
2023-01-28T09:49:53.132Z,99213.00
2023-01-28T09:52:42.900Z,99217.00
2023-01-28T09:55:38.838Z,99225.00
2023-01-28T09:58:26.596Z,99215.00
2023-01-28T10:01:45.025Z,99223.00
2023-01-28T10:05:00.101Z,99221.00
2023-01-28T10:08:08.060Z,99220.00
2023-01-28T10:11:41.329Z,99214.00
2023-01-28T10:14:41.372Z,99215.00
2023-01-28T10:17:48.116Z,99213.00
2023-01-28T10:20:55.459Z,99213.00
2023-01-28T10:24:25.729Z,99208.00
2023-01-28T10:27:21.664Z,99204.00
2023-01-28T10:30:46.528Z,99205.00
2023-01-28T10:33:40.129Z,99211.00
2023-01-28T10:36:27.897Z,99217.00
2023-01-28T10:39:24.823Z,99224.00
2023-01-28T10:42:36.621Z,99218.00
2023-01-28T10:45:35.662Z,99219.00
2023-01-28T10:48:43.098Z,99215.00
2023-01-28T10:51:37.665Z,99221.00
2023-01-28T10:54:29.372Z,99215.00
2023-01-28T10:57:19.412Z,99214.00
2023-01-28T11:00:34.564Z,99216.00
2023-01-28T11:03:28.312Z,99211.00
2023-01-28T11:06:29.502Z,99212.00
2023-01-28T11:09:38.507Z,99211.00
2023-01-28T11:12:31.417Z,99205.00
2023-01-28T11:15:19.935Z,99205.00
2023-01-28T11:18:24.995Z,99210.00
2023-01-28T11:21:24.543Z,99207.00
2023-01-28T11:24:30.400Z,99204.00
2023-01-28T11:27:25.269Z,99208.00
2023-01-28T11:30:40.337Z,99211.00
2023-01-28T11:33:43.352Z,99208.00
2023-01-28T11:36:34.952Z,99205.00
2023-01-28T11:39:28.704Z,99204.00
2023-01-28T11:42:20.533Z,99202.00
2023-01-28T11:45:25.939Z,99204.00
2023-01-28T11:48:48.499Z,99197.00
2023-01-28T11:52:15.093Z,99202.00
2023-01-28T11:55:27.793Z,99208.00
2023-01-28T11:58:33.667Z,99203.00
2023-01-28T12:01:47.660Z,99201.00
2023-01-28T12:04:49.893Z,99203.00
2023-01-28T12:07:40.791Z,99206.00
2023-01-28T12:10:55.245Z,99207.00
2023-01-28T12:14:05.348Z,99199.00
2023-01-28T12:17:43.094Z,99201.00
2023-01-28T12:21:06.830Z,99201.00
2023-01-28T12:24:41.322Z,99201.00
2023-01-28T12:28:03.236Z,99212.00
2023-01-28T12:31:38.522Z,99202.00
2023-01-28T12:34:37.329Z,99205.00
2023-01-28T12:38:11.188Z,99197.00
2023-01-28T12:41:23.718Z,99205.00
2023-01-28T12:44:31.518Z,99206.00
2023-01-28T12:47:34.670Z,99202.00
2023-01-28T12:50:41.315Z,99200.00
2023-01-28T12:53:50.133Z,99208.00
2023-01-28T12:56:46.377Z,99208.00
2023-01-28T12:59:46.298Z,99203.00
2023-01-28T13:02:42.553Z,99208.00
2023-01-28T13:05:39.728Z,99197.00
2023-01-28T13:08:29.853Z,99202.00
2023-01-28T13:11:21.670Z,99203.00
2023-01-28T13:14:13.019Z,99202.00
2023-01-28T13:17:12.722Z,99210.00
2023-01-28T13:20:01.239Z,99207.00
2023-01-28T13:22:48.921Z,99207.00
2023-01-28T13:25:47.747Z,99211.00
2023-01-28T13:28:35.445Z,99214.00
2023-01-28T13:31:24.753Z,99211.00
2023-01-28T13:34:33.857Z,99215.00
2023-01-28T13:37:38.695Z,99220.00
2023-01-28T13:40:29.751Z,99224.00
2023-01-28T13:43:38.389Z,99225.00
2023-01-28T13:46:31.280Z,99223.00
2023-01-28T13:49:40.283Z,99230.00
2023-01-28T13:52:47.558Z,99223.00
2023-01-28T13:55:45.077Z,99228.00
2023-01-28T13:58:58.448Z,99232.00
2023-01-28T14:02:13.880Z,99234.00
2023-01-28T14:05:26.259Z,99241.00
2023-01-28T14:08:39.539Z,99238.00
2023-01-28T14:11:53.989Z,99242.00
2023-01-28T14:15:33.840Z,99242.00
2023-01-28T14:18:36.936Z,99247.00
2023-01-28T14:21:28.924Z,99245.00
2023-01-28T14:24:19.706Z,99249.00
2023-01-28T14:27:35.472Z,99256.00
2023-01-28T14:30:31.737Z,99254.00
2023-01-28T14:33:19.595Z,99256.00
2023-01-28T14:36:11.840Z,99263.00
2023-01-28T14:38:59.810Z,99269.00
2023-01-28T14:41:51.159Z,99272.00
2023-01-28T14:44:45.224Z,99273.00
2023-01-28T14:47:51.416Z,99276.00
2023-01-28T14:51:02.625Z,99274.00
2023-01-28T14:54:37.039Z,99272.00
2023-01-28T14:57:55.504Z,99269.00
2023-01-28T15:00:55.520Z,99270.00
2023-01-28T15:03:46.584Z,99273.00
2023-01-28T15:06:37.263Z,99276.00
2023-01-28T15:09:24.813Z,99287.00
2023-01-28T15:12:17.268Z,99290.00
2023-01-28T15:15:15.142Z,99289.00
2023-01-28T15:18:18.591Z,99287.00
2023-01-28T15:21:06.441Z,99291.00
2023-01-28T15:24:03.220Z,99293.00
2023-01-28T15:26:51.130Z,99291.00
2023-01-28T15:29:38.624Z,99295.00
2023-01-28T15:32:31.358Z,99305.00
2023-01-28T15:35:18.924Z,99299.00
2023-01-28T15:38:06.685Z,99314.00
2023-01-28T15:41:01.878Z,99311.00
2023-01-28T15:43:52.594Z,99316.00
2023-01-28T15:46:40.847Z,99312.00
2023-01-28T15:49:35.699Z,99317.00
2023-01-28T15:52:39.572Z,99313.00
2023-01-28T15:55:38.926Z,99316.00
2023-01-28T15:58:34.108Z,99321.00
2023-01-28T16:01:22.206Z,99319.00
2023-01-28T16:04:30.338Z,99329.00
2023-01-28T16:07:17.883Z,99326.00
2023-01-28T16:10:06.053Z,99323.00
2023-01-28T16:13:11.199Z,99328.00
2023-01-28T16:16:01.444Z,99330.00
2023-01-28T16:18:55.911Z,99328.00
2023-01-28T16:21:47.057Z,99335.00
2023-01-28T16:24:36.632Z,99335.00
2023-01-28T16:27:28.013Z,99340.00
2023-01-28T16:30:17.296Z,99343.00
2023-01-28T16:33:04.865Z,99342.00
2023-01-28T16:36:06.648Z,99344.00
2023-01-28T16:38:55.940Z,99351.00
2023-01-28T16:41:47.076Z,99357.00
2023-01-28T16:44:34.484Z,99361.00
2023-01-28T16:47:21.958Z,99359.00
2023-01-28T16:50:14.656Z,99357.00
2023-01-28T16:53:02.214Z,99360.00
2023-01-28T16:55:51.449Z,99361.00
2023-01-28T16:58:39.037Z,99365.00
2023-01-28T17:01:27.787Z,99365.00
2023-01-28T17:04:15.754Z,99365.00
2023-01-28T17:07:03.626Z,99371.00
2023-01-28T17:09:51.213Z,99370.00
2023-01-28T17:12:38.678Z,99382.00
2023-01-28T17:15:26.683Z,99373.00
2023-01-28T17:18:14.403Z,99378.00
2023-01-28T17:21:07.642Z,99378.00
2023-01-28T17:23:55.874Z,99378.00
2023-01-28T17:26:44.641Z,99371.00
2023-01-28T17:29:32.274Z,99375.00
2023-01-28T17:32:19.840Z,99383.00
2023-01-28T17:35:07.768Z,99383.00
2023-01-28T17:37:55.533Z,99386.00
2023-01-28T17:40:43.072Z,99394.00
2023-01-28T17:43:30.973Z,99398.00
2023-01-28T17:46:19.861Z,99394.00
2023-01-28T17:49:07.484Z,99405.00
2023-01-28T17:51:55.017Z,99408.00
2023-01-28T17:54:42.551Z,99403.00
2023-01-28T17:57:30.084Z,99411.00
2023-01-28T18:00:19.292Z,99419.00
2023-01-28T18:03:06.829Z,99421.00
2023-01-28T18:06:00.379Z,99413.00
2023-01-28T18:08:48.100Z,99423.00
2023-01-28T18:11:35.801Z,99417.00
2023-01-28T18:14:23.274Z,99428.00
2023-01-28T18:17:11.751Z,99419.00
2023-01-28T18:19:59.362Z,99427.00
2023-01-28T18:22:46.892Z,99432.00
2023-01-28T18:25:34.344Z,99428.00
2023-01-28T18:28:21.844Z,99431.00
2023-01-28T18:31:09.476Z,99437.00
2023-01-28T18:33:57.338Z,99439.00
2023-01-28T18:36:44.886Z,99426.00
2023-01-28T18:39:32.759Z,99439.00
2023-01-28T18:42:21.400Z,99438.00
2023-01-28T18:45:09.283Z,99434.00
2023-01-28T18:47:56.792Z,99435.00
2023-01-28T18:50:56.434Z,99425.00
2023-01-28T18:53:44.005Z,99426.00
2023-01-28T18:56:33.254Z,99439.00
2023-01-28T18:59:21.394Z,99433.00
2023-01-28T19:02:13.862Z,99440.00
2023-01-28T19:05:01.401Z,99447.00
2023-01-28T19:07:48.893Z,99434.00
2023-01-28T19:10:37.039Z,99437.00
2023-01-28T19:13:24.754Z,99441.00
2023-01-28T19:16:12.312Z,99439.00
2023-01-28T19:19:01.850Z,99447.00
2023-01-28T19:21:49.319Z,99453.00
2023-01-28T19:24:36.878Z,99457.00
2023-01-28T19:27:24.432Z,99454.00
2023-01-28T19:30:12.373Z,99445.00
2023-01-28T19:33:01.134Z,99449.00
2023-01-28T19:35:48.730Z,99458.00
2023-01-28T19:38:37.172Z,99450.00
2023-01-28T19:41:25.027Z,99458.00
2023-01-28T19:44:13.575Z,99462.00
2023-01-28T19:47:02.345Z,99463.00
2023-01-28T19:49:49.825Z,99463.00
2023-01-28T19:52:38.013Z,99456.00
2023-01-28T19:55:25.753Z,99468.00
2023-01-28T19:58:13.984Z,99467.00
2023-01-28T20:01:10.191Z,99465.00
2023-01-28T20:04:00.335Z,99472.00
2023-01-28T20:06:50.155Z,99464.00
2023-01-28T20:09:37.705Z,99463.00
2023-01-28T20:12:25.257Z,99473.00
2023-01-28T20:15:12.905Z,99471.00
2023-01-28T20:18:00.531Z,99467.00
2023-01-28T20:20:55.741Z,99475.00
2023-01-28T20:23:43.179Z,99470.00
2023-01-28T20:26:35.675Z,99469.00
2023-01-28T20:29:23.142Z,99477.00
2023-01-28T20:32:18.397Z,99475.00
2023-01-28T20:35:08.240Z,99474.00
2023-01-28T20:37:55.754Z,99481.00
2023-01-28T20:40:44.006Z,99488.00
2023-01-28T20:43:35.549Z,99481.00
2023-01-28T20:46:30.592Z,99486.00
2023-01-28T20:49:18.183Z,99489.00
2023-01-28T20:52:05.904Z,99492.00
2023-01-28T20:54:53.945Z,99495.00
2023-01-28T20:57:44.468Z,99496.00
2023-01-28T21:00:32.247Z,99494.00
2023-01-28T21:03:20.883Z,99492.00
2023-01-28T21:06:08.397Z,99497.00
2023-01-28T21:08:57.275Z,99505.00
2023-01-28T21:11:44.883Z,99492.00
2023-01-28T21:14:32.364Z,99496.00
2023-01-28T21:17:19.859Z,99500.00
2023-01-28T21:20:09.129Z,99500.00
2023-01-28T21:22:57.384Z,99500.00
2023-01-28T21:25:47.351Z,99500.00
2023-01-28T21:28:35.212Z,99505.00
2023-01-28T21:31:26.543Z,99510.00
2023-01-28T21:34:14.688Z,99509.00
2023-01-28T21:37:02.174Z,99514.00
2023-01-28T21:39:50.371Z,99510.00
2023-01-28T21:42:37.869Z,99508.00
2023-01-28T21:45:25.590Z,99522.00
2023-01-28T21:48:13.165Z,99524.00
2023-01-28T21:51:26.769Z,99533.00
2023-01-28T21:54:18.295Z,99533.00
2023-01-28T21:57:05.887Z,99532.00
2023-01-28T21:59:53.428Z,99531.00
2023-01-28T22:02:41.141Z,99531.00
2023-01-28T22:05:28.664Z,99532.00
2023-01-28T22:08:16.462Z,99526.00
2023-01-28T22:11:07.162Z,99537.00
2023-01-28T22:13:54.666Z,99545.00
2023-01-28T22:16:43.289Z,99542.00
2023-01-28T22:19:30.853Z,99542.00
2023-01-28T22:22:18.589Z,99531.00
2023-01-28T22:25:06.705Z,99538.00
2023-01-28T22:27:54.201Z,99535.00
2023-01-28T22:30:41.800Z,99532.00
2023-01-28T22:33:29.264Z,99531.00
2023-01-28T22:36:16.936Z,99520.00
2023-01-28T22:39:08.369Z,99521.00
2023-01-28T22:41:55.891Z,99526.00
2023-01-28T22:44:43.523Z,99529.00
2023-01-28T22:47:30.984Z,99524.00
2023-01-28T22:50:19.209Z,99531.00
2023-01-28T22:53:06.726Z,99523.00
2023-01-28T22:55:56.329Z,99518.00
2023-01-28T22:58:44.963Z,99517.00
2023-01-28T23:01:33.206Z,99517.00
2023-01-28T23:04:20.994Z,99513.00
2023-01-28T23:07:09.554Z,99527.00
2023-01-28T23:09:57.210Z,99523.00
2023-01-28T23:12:46.184Z,99514.00
2023-01-28T23:15:52.475Z,99512.00
2023-01-28T23:18:58.764Z,99517.00
2023-01-28T23:22:05.059Z,99511.00
2023-01-28T23:24:52.603Z,99514.00
2023-01-28T23:27:40.173Z,99515.00
2023-01-28T23:30:28.178Z,99521.00
2023-01-28T23:33:15.652Z,99524.00
2023-01-28T23:36:03.184Z,99524.00
2023-01-28T23:38:50.669Z,99522.00
2023-01-28T23:41:38.221Z,99532.00
2023-01-28T23:44:27.410Z,99520.00
2023-01-28T23:47:15.831Z,99516.00
2023-01-28T23:50:03.722Z,99513.00
2023-01-28T23:52:51.242Z,99515.00
2023-01-28T23:55:40.744Z,99515.00
2023-01-28T23:58:42.518Z,99509.00
